createdAt,value
2018-09-14T00:00:16.285Z,16.24
2018-09-14T00:01:16.487Z,16.23
2018-09-14T00:02:16.748Z,16.23
2018-09-14T00:03:16.877Z,16.23
2018-09-14T00:04:17.171Z,16.23
2018-09-14T00:05:17.275Z,16.22
2018-09-14T00:06:17.378Z,16.21
2018-09-14T00:07:17.618Z,16.20
2018-09-14T00:08:17.769Z,16.21
2018-09-14T00:09:17.925Z,16.20
2018-09-14T00:10:18.359Z,16.21
2018-09-14T00:11:19.183Z,16.21
2018-09-14T00:12:19.495Z,16.21
2018-09-14T00:13:19.720Z,16.20
2018-09-14T00:14:20.023Z,16.20
2018-09-14T00:15:20.645Z,16.20
2018-09-14T00:16:20.779Z,16.20
2018-09-14T00:17:20.772Z,16.18
2018-09-14T00:18:20.662Z,16.17
2018-09-14T00:19:20.695Z,16.15
2018-09-14T00:20:21.163Z,16.16
2018-09-14T00:21:21.501Z,16.15
2018-09-14T00:22:21.822Z,16.14
2018-09-14T00:23:22.117Z,16.14
2018-09-14T00:24:22.206Z,16.13
2018-09-14T00:25:22.230Z,16.13
2018-09-14T00:26:22.229Z,16.13
2018-09-14T00:27:22.572Z,16.14
2018-09-14T00:28:22.910Z,16.14
2018-09-14T00:29:23.280Z,16.14
2018-09-14T00:30:23.771Z,16.14
2018-09-14T00:31:24.114Z,16.15
2018-09-14T00:32:24.315Z,16.15
2018-09-14T00:33:24.581Z,16.15
2018-09-14T00:34:24.784Z,16.16
2018-09-14T00:35:24.994Z,16.16
2018-09-14T00:36:25.381Z,16.16
2018-09-14T00:37:25.513Z,16.16
2018-09-14T00:38:25.863Z,16.17
2018-09-14T00:39:26.105Z,16.17
2018-09-14T00:40:26.498Z,16.17
2018-09-14T00:41:26.606Z,16.15
2018-09-14T00:42:26.922Z,16.16
2018-09-14T00:43:27.109Z,16.16
2018-09-14T00:44:27.357Z,16.15
2018-09-14T00:45:27.522Z,16.15
2018-09-14T00:46:27.775Z,16.15
2018-09-14T00:47:28.031Z,16.15
2018-09-14T00:48:28.151Z,16.15
2018-09-14T00:49:28.457Z,16.14
2018-09-14T00:50:28.681Z,16.15
2018-09-14T00:51:28.893Z,16.14
2018-09-14T00:52:29.222Z,16.14
2018-09-14T00:53:29.433Z,16.13
2018-09-14T00:54:29.735Z,16.14
2018-09-14T00:55:29.934Z,16.14
2018-09-14T00:56:30.030Z,16.15
2018-09-14T00:57:30.190Z,16.16
2018-09-14T00:58:30.408Z,16.14
2018-09-14T00:59:30.682Z,16.14
2018-09-14T01:00:30.945Z,16.13
2018-09-14T01:01:31.105Z,16.15
2018-09-14T01:02:31.331Z,16.14
2018-09-14T01:03:31.527Z,16.15
2018-09-14T01:04:31.683Z,16.15
2018-09-14T01:05:31.954Z,16.15
2018-09-14T01:06:32.191Z,16.15
2018-09-14T01:07:32.383Z,16.17
2018-09-14T01:08:32.585Z,16.16
2018-09-14T01:09:32.900Z,16.15
2018-09-14T01:11:33.292Z,16.16
2018-09-14T01:12:33.929Z,16.17
2018-09-14T01:13:34.129Z,16.17
2018-09-14T01:14:34.873Z,16.17
2018-09-14T01:15:34.594Z,16.18
2018-09-14T01:16:35.007Z,16.17
2018-09-14T01:17:35.397Z,16.18
2018-09-14T01:18:38.784Z,16.18
2018-09-14T01:19:36.216Z,16.19
2018-09-14T01:20:36.533Z,16.18
2018-09-14T01:21:36.644Z,16.18
2018-09-14T01:22:36.326Z,16.20
2018-09-14T01:23:36.915Z,16.19
2018-09-14T01:24:37.168Z,16.19
2018-09-14T01:25:37.240Z,16.17
2018-09-14T01:26:37.145Z,16.18
2018-09-14T01:27:37.467Z,16.17
2018-09-14T01:28:37.907Z,16.17
2018-09-14T01:29:38.320Z,16.17
2018-09-14T01:30:38.849Z,16.17
2018-09-14T01:31:38.907Z,16.16
2018-09-14T01:32:38.864Z,16.17
2018-09-14T01:33:39.140Z,16.16
2018-09-14T01:34:39.308Z,16.17
2018-09-14T01:35:39.508Z,16.17
2018-09-14T01:36:39.705Z,16.18
2018-09-14T01:37:39.837Z,16.16
2018-09-14T01:38:40.062Z,16.15
2018-09-14T01:39:40.432Z,16.15
2018-09-14T01:40:40.723Z,16.15
2018-09-14T01:41:40.907Z,16.14
2018-09-14T01:42:41.163Z,16.15
2018-09-14T01:43:41.321Z,16.14
2018-09-14T01:44:41.433Z,16.14
2018-09-14T01:45:41.631Z,16.14
2018-09-14T01:46:41.845Z,16.13
2018-09-14T01:47:42.055Z,16.14
2018-09-14T01:48:42.304Z,16.13
2018-09-14T01:49:42.478Z,16.14
2018-09-14T01:50:42.767Z,16.11
2018-09-14T01:51:42.896Z,16.13
2018-09-14T01:52:43.155Z,16.11
2018-09-14T01:53:43.400Z,16.10
2018-09-14T01:54:43.582Z,16.10
2018-09-14T01:55:43.787Z,16.11
2018-09-14T01:56:43.950Z,16.11
2018-09-14T01:57:44.165Z,16.11
2018-09-14T01:58:44.389Z,16.09
2018-09-14T01:59:44.586Z,16.10
2018-09-14T02:00:44.803Z,16.09
2018-09-14T02:01:45.125Z,16.09
2018-09-14T02:02:45.475Z,16.09
2018-09-14T02:03:45.732Z,16.09
2018-09-14T02:04:45.958Z,16.08
2018-09-14T02:05:46.282Z,16.07
2018-09-14T02:06:46.483Z,16.08
2018-09-14T02:07:46.673Z,16.09
2018-09-14T02:08:46.900Z,16.07
2018-09-14T02:09:47.123Z,16.10
2018-09-14T02:10:47.362Z,16.10
2018-09-14T02:11:47.541Z,16.08
2018-09-14T02:12:47.750Z,16.09
2018-09-14T02:13:48.551Z,16.09
2018-09-14T02:14:49.021Z,16.10
2018-09-14T02:15:49.384Z,16.09
2018-09-14T02:16:50.002Z,16.08
2018-09-14T02:17:49.807Z,16.09
2018-09-14T02:18:50.427Z,16.08
2018-09-14T02:19:50.546Z,16.07
2018-09-14T02:20:50.442Z,16.07
2018-09-14T02:21:50.752Z,16.07
2018-09-14T02:22:51.167Z,16.07
2018-09-14T02:23:51.482Z,16.06
2018-09-14T02:24:51.809Z,16.06
2018-09-14T02:25:51.992Z,16.07
2018-09-14T02:26:52.078Z,16.08
2018-09-14T02:27:52.072Z,16.07
2018-09-14T02:28:52.453Z,16.08
2018-09-14T02:29:52.788Z,16.07
2018-09-14T02:30:53.119Z,16.07
2018-09-14T02:31:53.564Z,16.07
2018-09-14T02:32:53.971Z,16.07
2018-09-14T02:33:54.468Z,16.08
2018-09-14T02:34:54.584Z,16.07
2018-09-14T02:35:54.764Z,16.08
2018-09-14T02:36:54.982Z,16.07
2018-09-14T02:37:55.175Z,16.09
2018-09-14T02:38:55.274Z,16.09
2018-09-14T02:39:55.509Z,16.09
2018-09-14T02:40:55.726Z,16.09
2018-09-14T02:41:56.101Z,16.09
2018-09-14T02:42:56.236Z,16.08
2018-09-14T02:43:56.487Z,16.09
2018-09-14T02:44:56.666Z,16.08
2018-09-14T02:45:56.938Z,16.09
2018-09-14T02:46:57.058Z,16.10
2018-09-14T02:47:57.331Z,16.08
2018-09-14T02:48:57.507Z,16.09
2018-09-14T02:49:57.642Z,16.07
2018-09-14T02:50:57.876Z,16.08
2018-09-14T02:51:58.113Z,16.07
2018-09-14T02:52:58.299Z,16.07
2018-09-14T02:53:58.468Z,16.07
2018-09-14T02:54:58.568Z,16.06
2018-09-14T02:55:58.892Z,16.08
2018-09-14T02:56:59.161Z,16.07
2018-09-14T02:57:59.301Z,16.06
2018-09-14T02:58:59.757Z,16.05
2018-09-14T03:00:00.064Z,16.05
2018-09-14T03:01:00.141Z,16.05
2018-09-14T03:02:00.353Z,16.05
2018-09-14T03:03:00.598Z,16.04
2018-09-14T03:04:00.750Z,16.04
2018-09-14T03:05:00.879Z,16.03
2018-09-14T03:06:01.108Z,16.03
2018-09-14T03:07:01.303Z,16.03
2018-09-14T03:08:01.893Z,16.02
2018-09-14T03:09:01.544Z,16.04
2018-09-14T03:10:01.702Z,16.04
2018-09-14T03:11:02.107Z,16.02
2018-09-14T03:12:02.631Z,16.02
2018-09-14T03:13:02.248Z,16.03
2018-09-14T03:14:02.617Z,16.01
2018-09-14T03:15:02.778Z,16.01
2018-09-14T03:16:03.719Z,16.00
2018-09-14T03:17:04.115Z,16.00
2018-09-14T03:18:04.562Z,16.00
2018-09-14T03:19:04.976Z,15.99
2018-09-14T03:20:05.571Z,15.99
2018-09-14T03:21:05.479Z,15.98
2018-09-14T03:22:05.893Z,15.99
2018-09-14T03:23:06.411Z,15.98
2018-09-14T03:24:06.530Z,15.99
2018-09-14T03:25:06.631Z,15.98
2018-09-14T03:26:06.740Z,15.98
2018-09-14T03:27:06.847Z,15.96
2018-09-14T03:28:06.960Z,15.98
2018-09-14T03:29:06.716Z,15.99
2018-09-14T03:30:07.077Z,15.97
2018-09-14T03:31:07.263Z,15.97
2018-09-14T03:32:07.245Z,15.98
2018-09-14T03:33:07.608Z,15.98
2018-09-14T03:34:07.957Z,15.97
2018-09-14T03:35:08.319Z,15.98
2018-09-14T03:36:08.553Z,15.99
2018-09-14T03:37:08.894Z,15.99
2018-09-14T03:38:09.449Z,15.98
2018-09-14T03:39:10.010Z,15.98
2018-09-14T03:40:09.652Z,15.98
2018-09-14T03:41:09.659Z,15.98
2018-09-14T03:42:09.331Z,15.98
2018-09-14T03:43:09.761Z,15.99
2018-09-14T03:44:10.192Z,15.99
2018-09-14T03:45:10.327Z,16.00
2018-09-14T03:46:10.708Z,16.00
2018-09-14T03:47:10.890Z,16.00
2018-09-14T03:48:11.109Z,16.02
2018-09-14T03:49:11.333Z,16.01
2018-09-14T03:50:11.720Z,16.01
2018-09-14T03:51:11.968Z,16.00
2018-09-14T03:52:12.071Z,16.00
2018-09-14T03:53:12.184Z,16.01
2018-09-14T03:54:12.381Z,16.00
2018-09-14T03:55:12.875Z,15.99
2018-09-14T03:56:13.108Z,16.00
2018-09-14T03:57:13.439Z,15.99
2018-09-14T03:58:13.630Z,15.98
2018-09-14T03:59:13.860Z,15.98
2018-09-14T04:00:13.937Z,15.97
2018-09-14T04:01:14.154Z,15.96
2018-09-14T04:02:14.253Z,15.97
2018-09-14T04:03:14.547Z,15.96
2018-09-14T04:04:14.800Z,15.95
2018-09-14T04:05:15.286Z,15.94
2018-09-14T04:06:15.393Z,15.93
2018-09-14T04:07:15.536Z,15.92
2018-09-14T04:08:15.644Z,15.91
2018-09-14T04:09:15.902Z,15.90
2018-09-14T04:10:16.401Z,15.89
2018-09-14T04:11:16.512Z,15.88
2018-09-14T04:12:16.836Z,15.86
2018-09-14T04:13:17.049Z,15.85
2018-09-14T04:14:17.217Z,15.83
2018-09-14T04:15:17.418Z,15.81
2018-09-14T04:16:17.632Z,15.79
2018-09-14T04:17:18.129Z,15.78
2018-09-14T04:19:18.973Z,15.76
2018-09-14T04:20:19.076Z,15.72
2018-09-14T04:21:19.389Z,15.69
2018-09-14T04:22:19.504Z,15.67
2018-09-14T04:23:20.168Z,15.66
2018-09-14T04:24:19.720Z,15.64
2018-09-14T04:25:20.231Z,15.63
2018-09-14T04:26:20.338Z,15.61
2018-09-14T04:27:20.346Z,15.61
2018-09-14T04:28:20.352Z,15.60
2018-09-14T04:29:20.472Z,15.58
2018-09-14T04:30:20.367Z,15.58
2018-09-14T04:31:20.681Z,15.57
2018-09-14T04:32:21.052Z,15.57
2018-09-14T04:33:21.309Z,15.58
2018-09-14T04:34:21.633Z,15.57
2018-09-14T04:35:21.928Z,15.58
2018-09-14T04:36:22.032Z,15.58
2018-09-14T04:37:22.224Z,15.58
2018-09-14T04:38:22.261Z,15.58
2018-09-14T04:39:22.235Z,15.58
2018-09-14T04:40:22.224Z,15.58
2018-09-14T04:41:22.562Z,15.59
2018-09-14T04:42:22.897Z,15.58
2018-09-14T04:43:23.311Z,15.58
2018-09-14T04:44:23.832Z,15.58
2018-09-14T04:45:23.738Z,15.60
2018-09-14T04:46:23.950Z,15.58
2018-09-14T04:47:24.244Z,15.58
2018-09-14T04:48:24.411Z,15.58
2018-09-14T04:49:24.705Z,15.58
2018-09-14T04:50:24.791Z,15.58
2018-09-14T04:51:25.015Z,15.58
2018-09-14T04:52:25.172Z,15.60
2018-09-14T04:53:25.542Z,15.60
2018-09-14T04:54:25.671Z,15.60
2018-09-14T04:55:25.983Z,15.60
2018-09-14T04:56:26.197Z,15.61
2018-09-14T04:57:26.522Z,15.58
2018-09-14T04:58:27.740Z,15.60
2018-09-14T04:59:27.087Z,15.59
2018-09-14T05:00:27.269Z,15.60
2018-09-14T05:01:27.381Z,15.59
2018-09-14T05:02:27.499Z,15.59
2018-09-14T05:03:27.632Z,15.60
2018-09-14T05:04:27.822Z,15.58
2018-09-14T05:05:27.919Z,15.60
2018-09-14T05:06:28.125Z,15.60
2018-09-14T05:07:28.262Z,15.58
2018-09-14T05:08:28.424Z,15.59
2018-09-14T05:09:28.543Z,15.61
2018-09-14T05:10:28.793Z,15.60
2018-09-14T05:11:28.956Z,15.60
2018-09-14T05:12:29.169Z,15.60
2018-09-14T05:13:29.383Z,15.61
2018-09-14T05:14:29.768Z,15.59
2018-09-14T05:15:29.951Z,15.61
2018-09-14T05:16:30.072Z,15.61
2018-09-14T05:17:30.215Z,15.62
2018-09-14T05:18:30.543Z,15.64
2018-09-14T05:19:30.760Z,15.63
2018-09-14T05:20:31.097Z,15.64
2018-09-14T05:21:31.275Z,15.63
2018-09-14T05:22:31.468Z,15.65
2018-09-14T05:23:31.782Z,15.65
2018-09-14T05:24:32.005Z,15.66
2018-09-14T05:25:33.836Z,15.66
2018-09-14T05:26:32.576Z,15.67
2018-09-14T05:27:32.924Z,15.67
2018-09-14T05:28:32.807Z,15.68
2018-09-14T05:29:33.246Z,15.68
2018-09-14T05:30:34.147Z,15.69
2018-09-14T05:31:34.561Z,15.69
2018-09-14T05:32:34.879Z,15.71
2018-09-14T05:33:35.500Z,15.71
2018-09-14T05:34:35.617Z,15.71
2018-09-14T05:35:35.617Z,15.70
2018-09-14T05:36:36.108Z,15.70
2018-09-14T05:37:36.442Z,15.69
2018-09-14T05:38:36.652Z,15.71
2018-09-14T05:39:36.883Z,15.72
2018-09-14T05:40:37.060Z,15.73
2018-09-14T05:41:37.194Z,15.73
2018-09-14T05:42:37.289Z,15.75
2018-09-14T05:43:37.301Z,15.76
2018-09-14T05:44:37.262Z,15.76
2018-09-14T05:45:37.728Z,15.78
2018-09-14T05:46:38.083Z,15.81
2018-09-14T05:47:38.663Z,15.84
2018-09-14T05:48:38.548Z,15.85
2018-09-14T05:49:39.088Z,15.88
2018-09-14T05:50:39.090Z,15.89
2018-09-14T05:51:38.943Z,15.89
2018-09-14T05:52:39.366Z,15.90
2018-09-14T05:53:39.656Z,15.92
2018-09-14T05:54:39.985Z,15.96
2018-09-14T05:55:40.223Z,15.97
2018-09-14T05:56:40.456Z,15.98
2018-09-14T05:57:40.628Z,16.00
2018-09-14T05:58:40.863Z,16.00
2018-09-14T05:59:41.100Z,16.01
2018-09-14T06:00:41.295Z,16.03
2018-09-14T06:01:41.648Z,16.05
2018-09-14T06:02:41.816Z,16.07
2018-09-14T06:03:41.998Z,16.07
2018-09-14T06:04:42.224Z,16.09
2018-09-14T06:05:42.455Z,16.09
2018-09-14T06:06:42.834Z,16.11
2018-09-14T06:07:43.020Z,16.12
2018-09-14T06:08:43.319Z,16.13
2018-09-14T06:09:43.532Z,16.15
2018-09-14T06:10:43.683Z,16.14
2018-09-14T06:11:43.895Z,16.16
2018-09-14T06:12:44.067Z,16.18
2018-09-14T06:13:44.286Z,16.18
2018-09-14T06:14:44.560Z,16.18
2018-09-14T06:15:44.671Z,16.21
2018-09-14T06:16:44.780Z,16.19
2018-09-14T06:17:45.070Z,16.18
2018-09-14T06:18:45.272Z,16.18
2018-09-14T06:19:45.453Z,16.21
2018-09-14T06:20:45.715Z,16.21
2018-09-14T06:21:45.875Z,16.21
2018-09-14T06:22:46.158Z,16.25
2018-09-14T06:23:46.202Z,16.27
2018-09-14T06:24:46.449Z,16.28
2018-09-14T06:25:46.626Z,16.29
2018-09-14T06:26:46.919Z,16.33
2018-09-14T06:27:47.019Z,16.35
2018-09-14T06:28:47.161Z,16.35
2018-09-14T06:29:47.405Z,16.31
2018-09-14T06:30:47.578Z,16.33
2018-09-14T06:31:47.779Z,16.30
2018-09-14T06:32:48.374Z,16.30
2018-09-14T06:33:48.585Z,16.31
2018-09-14T06:34:48.900Z,16.32
2018-09-14T06:35:49.231Z,16.34
2018-09-14T06:36:49.642Z,16.35
2018-09-14T06:37:49.786Z,16.37
2018-09-14T06:38:50.265Z,16.39
2018-09-14T06:39:50.650Z,16.40
2018-09-14T06:40:50.954Z,16.42
2018-09-14T06:41:51.133Z,16.43
2018-09-14T06:42:51.617Z,16.44
2018-09-14T06:43:52.022Z,16.45
2018-09-14T06:44:52.279Z,16.45
2018-09-14T06:45:52.326Z,16.46
2018-09-14T06:46:52.205Z,16.45
2018-09-14T06:47:52.652Z,16.44
2018-09-14T06:48:53.074Z,16.44
2018-09-14T06:49:53.482Z,16.45
2018-09-14T06:50:53.931Z,16.47
2018-09-14T06:51:54.392Z,16.49
2018-09-14T06:52:54.792Z,16.52
2018-09-14T06:53:55.127Z,16.56
2018-09-14T06:54:55.311Z,16.59
2018-09-14T06:55:55.428Z,16.64
2018-09-14T06:56:55.544Z,16.69
2018-09-14T06:57:55.857Z,16.74
2018-09-14T06:58:56.054Z,16.79
2018-09-14T06:59:56.302Z,16.85
2018-09-14T07:00:56.663Z,16.90
2018-09-14T07:01:56.791Z,16.95
2018-09-14T07:02:57.003Z,17.00
2018-09-14T07:03:57.273Z,17.04
2018-09-14T07:04:57.417Z,17.08
2018-09-14T07:05:57.666Z,17.11
2018-09-14T07:06:57.901Z,17.14
2018-09-14T07:07:58.061Z,17.17
2018-09-14T07:08:58.264Z,17.19
2018-09-14T07:09:58.392Z,17.22
2018-09-14T07:10:58.594Z,17.24
2018-09-14T07:11:58.889Z,17.27
2018-09-14T07:12:59.140Z,17.29
2018-09-14T07:13:59.594Z,17.31
2018-09-14T07:14:59.755Z,17.34
2018-09-14T07:16:00.184Z,17.36
2018-09-14T07:17:00.380Z,17.39
2018-09-14T07:18:00.596Z,17.42
2018-09-14T07:19:00.966Z,17.44
2018-09-14T07:20:01.167Z,17.45
2018-09-14T07:21:01.319Z,17.47
2018-09-14T07:22:01.938Z,17.48
2018-09-14T07:23:01.645Z,17.49
2018-09-14T07:24:01.852Z,17.49
2018-09-14T07:25:02.234Z,17.49
2018-09-14T07:26:02.615Z,17.51
2018-09-14T07:27:03.278Z,17.51
2018-09-14T07:28:03.588Z,17.52
2018-09-14T07:29:04.056Z,17.53
2018-09-14T07:30:04.441Z,17.54
2018-09-14T07:31:04.744Z,17.55
2018-09-14T07:32:04.885Z,17.58
2018-09-14T07:33:04.887Z,17.60
2018-09-14T07:34:05.159Z,17.63
2018-09-14T07:35:05.675Z,17.65
2018-09-14T07:36:05.389Z,17.66
2018-09-14T07:37:05.688Z,17.67
2018-09-14T07:38:06.310Z,17.65
2018-09-14T07:39:06.320Z,17.64
2018-09-14T07:40:06.326Z,17.63
2018-09-14T07:41:06.134Z,17.62
2018-09-14T07:42:06.609Z,17.61
2018-09-14T07:43:06.362Z,17.61
2018-09-14T07:44:07.157Z,17.61
2018-09-14T07:45:07.141Z,17.62
2018-09-14T07:46:07.521Z,17.62
2018-09-14T07:47:07.906Z,17.62
2018-09-14T07:48:08.347Z,17.61
2018-09-14T07:49:08.832Z,17.60
2018-09-14T07:50:08.985Z,17.62
2018-09-14T07:51:09.063Z,17.76
2018-09-14T07:52:09.041Z,18.06
2018-09-14T07:53:09.159Z,18.41
2018-09-14T07:54:09.591Z,18.77
2018-09-14T07:55:09.787Z,19.07
2018-09-14T07:56:10.046Z,19.28
2018-09-14T07:57:10.487Z,19.40
2018-09-14T07:58:10.836Z,19.45
2018-09-14T07:59:11.041Z,19.50
2018-09-14T08:00:11.244Z,19.56
2018-09-14T08:01:11.482Z,19.60
2018-09-14T08:02:11.668Z,19.65
2018-09-14T08:03:11.982Z,19.88
2018-09-14T08:04:12.158Z,19.91
2018-09-14T08:05:12.559Z,19.92
2018-09-14T08:06:12.801Z,20.05
2018-09-14T08:07:13.052Z,20.06
2018-09-14T08:08:13.237Z,20.05
2018-09-14T08:09:13.735Z,20.16
2018-09-14T08:10:13.995Z,20.18
2018-09-14T08:11:14.104Z,20.07
2018-09-14T08:12:14.246Z,20.10
2018-09-14T08:13:14.517Z,20.19
2018-09-14T08:14:14.861Z,20.22
2018-09-14T08:15:15.462Z,20.22
2018-09-14T08:16:15.103Z,20.23
2018-09-14T08:17:15.307Z,20.32
2018-09-14T08:18:15.618Z,20.46
2018-09-14T08:19:15.831Z,20.63
2018-09-14T08:20:16.517Z,20.65
2018-09-14T08:21:16.449Z,20.63
2018-09-14T08:22:16.466Z,20.59
2018-09-14T08:23:16.678Z,20.56
2018-09-14T08:24:16.804Z,20.52
2018-09-14T08:25:17.251Z,20.48
2018-09-14T08:26:17.540Z,20.50
2018-09-14T08:27:17.724Z,20.49
2018-09-14T08:28:18.106Z,20.51
2018-09-14T08:29:19.085Z,20.51
2018-09-14T08:30:19.450Z,20.42
2018-09-14T08:31:19.868Z,20.42
2018-09-14T08:32:20.595Z,20.43
2018-09-14T08:33:20.086Z,20.45
2018-09-14T08:34:20.499Z,20.49
2018-09-14T08:35:21.019Z,20.55
2018-09-14T08:36:21.135Z,20.62
2018-09-14T08:37:21.154Z,20.85
2018-09-14T08:38:21.025Z,20.86
2018-09-14T08:39:21.212Z,20.88
2018-09-14T08:40:21.362Z,20.92
2018-09-14T08:41:21.776Z,20.97
2018-09-14T08:42:22.090Z,21.01
2018-09-14T08:43:22.097Z,21.05
2018-09-14T08:44:22.290Z,21.11
2018-09-14T08:45:22.201Z,21.08
2018-09-14T08:46:22.619Z,21.04
2018-09-14T08:47:23.053Z,20.91
2018-09-14T08:48:23.460Z,20.92
2018-09-14T08:49:23.848Z,20.94
2018-09-14T08:50:24.045Z,20.97
2018-09-14T08:51:24.255Z,21.01
2018-09-14T08:52:24.497Z,21.02
2018-09-14T08:53:24.662Z,21.03
2018-09-14T08:54:25.028Z,21.04
2018-09-14T08:55:25.244Z,21.04
2018-09-14T08:56:25.452Z,21.07
2018-09-14T08:57:25.596Z,21.11
2018-09-14T08:58:25.865Z,21.15
2018-09-14T09:00:26.142Z,21.25
2018-09-14T09:01:26.339Z,21.34
2018-09-14T09:02:26.583Z,21.44
2018-09-14T09:03:27.013Z,21.47
2018-09-14T09:04:27.216Z,21.52
2018-09-14T09:05:27.487Z,21.59
2018-09-14T09:06:27.778Z,21.67
2018-09-14T09:07:27.926Z,21.77
2018-09-14T09:08:28.116Z,22.48
2018-09-14T09:09:28.467Z,22.51
2018-09-14T09:10:28.810Z,22.60
2018-09-14T09:11:28.998Z,22.69
2018-09-14T09:12:29.076Z,22.89
2018-09-14T09:13:29.302Z,22.98
2018-09-14T09:14:29.494Z,22.96
2018-09-14T09:15:29.805Z,23.00
2018-09-14T09:16:30.229Z,23.07
2018-09-14T09:17:30.531Z,23.33
2018-09-14T09:18:30.756Z,23.34
2018-09-14T09:19:31.057Z,23.46
2018-09-14T09:20:31.172Z,23.77
2018-09-14T09:21:31.379Z,24.40
2018-09-14T09:22:31.636Z,24.04
2018-09-14T09:23:31.890Z,24.81
2018-09-14T09:24:32.037Z,24.59
2018-09-14T09:25:32.231Z,24.53
2018-09-14T09:26:32.615Z,24.27
2018-09-14T09:27:33.046Z,24.26
2018-09-14T09:28:33.653Z,24.22
2018-09-14T09:29:34.017Z,24.06
2018-09-14T09:30:34.281Z,24.05
2018-09-14T09:31:34.599Z,24.13
2018-09-14T09:32:35.236Z,24.11
2018-09-14T09:33:35.226Z,24.10
2018-09-14T09:34:35.746Z,24.12
2018-09-14T09:35:35.757Z,24.17
2018-09-14T09:36:35.860Z,24.70
2018-09-14T09:37:35.875Z,24.50
2018-09-14T09:38:35.976Z,24.31
2018-09-14T09:39:35.989Z,24.37
2018-09-14T09:40:36.091Z,24.50
2018-09-14T09:41:36.201Z,24.88
2018-09-14T09:42:36.218Z,25.36
2018-09-14T09:43:36.268Z,25.60
2018-09-14T09:44:36.736Z,25.97
2018-09-14T09:45:36.429Z,26.04
2018-09-14T09:46:36.946Z,26.57
2018-09-14T09:47:36.581Z,26.33
2018-09-14T09:48:36.962Z,25.65
2018-09-14T09:49:37.209Z,25.91
2018-09-14T09:50:37.328Z,25.86
2018-09-14T09:51:37.242Z,25.65
2018-09-14T09:52:37.685Z,26.11
2018-09-14T09:53:38.707Z,26.02
2018-09-14T09:54:38.080Z,26.42
2018-09-14T09:55:38.750Z,26.47
2018-09-14T09:56:38.678Z,26.71
2018-09-14T09:57:39.285Z,27.00
2018-09-14T09:58:39.243Z,27.35
2018-09-14T09:59:39.412Z,27.66
2018-09-14T10:00:39.676Z,27.77
2018-09-14T10:01:39.831Z,27.71
2018-09-14T10:02:40.098Z,27.60
2018-09-14T10:03:40.288Z,27.52
2018-09-14T10:04:40.469Z,27.71
2018-09-14T10:05:40.702Z,27.68
2018-09-14T10:06:40.929Z,27.85
2018-09-14T10:07:41.310Z,27.97
2018-09-14T10:08:41.553Z,28.16
2018-09-14T10:09:41.727Z,28.34
2018-09-14T10:10:41.975Z,28.52
2018-09-14T10:11:42.165Z,28.68
2018-09-14T10:12:42.534Z,28.86
2018-09-14T10:13:42.790Z,29.12
2018-09-14T10:14:43.018Z,29.36
2018-09-14T10:15:43.210Z,29.28
2018-09-14T10:16:43.323Z,29.40
2018-09-14T10:17:43.427Z,29.20
2018-09-14T10:18:43.655Z,29.36
2018-09-14T10:19:43.850Z,29.34
2018-09-14T10:20:44.069Z,29.40
2018-09-14T10:21:44.501Z,29.10
2018-09-14T10:22:44.604Z,28.87
2018-09-14T10:23:44.858Z,28.67
2018-09-14T10:24:45.011Z,28.71
2018-09-14T10:25:45.279Z,28.78
2018-09-14T10:26:45.713Z,28.93
2018-09-14T10:27:45.874Z,29.21
2018-09-14T10:28:46.079Z,29.31
2018-09-14T10:29:46.268Z,29.32
2018-09-14T10:30:46.397Z,29.09
2018-09-14T10:31:46.602Z,28.90
2018-09-14T10:32:46.815Z,28.66
2018-09-14T10:33:47.186Z,28.34
2018-09-14T10:34:47.352Z,28.28
2018-09-14T10:35:47.544Z,28.10
2018-09-14T10:36:47.722Z,27.92
2018-09-14T10:37:47.885Z,27.85
2018-09-14T10:38:48.670Z,27.83
2018-09-14T10:39:48.979Z,27.67
2018-09-14T10:40:49.530Z,27.51
2018-09-14T10:41:49.297Z,27.26
2018-09-14T10:42:49.829Z,27.17
2018-09-14T10:43:49.720Z,26.96
2018-09-14T10:44:50.126Z,26.83
2018-09-14T10:45:50.643Z,26.72
2018-09-14T10:46:50.648Z,26.63
2018-09-14T10:47:50.759Z,26.51
2018-09-14T10:48:50.983Z,26.52
2018-09-14T10:49:50.988Z,26.47
2018-09-14T10:50:50.988Z,26.52
2018-09-14T10:51:50.950Z,26.49
2018-09-14T10:52:51.236Z,26.49
2018-09-14T10:53:51.730Z,26.49
2018-09-14T10:54:51.968Z,26.61
2018-09-14T10:55:52.114Z,26.84
2018-09-14T10:56:52.122Z,27.04
2018-09-14T10:57:52.573Z,27.17
2018-09-14T10:58:52.906Z,27.26
2018-09-14T10:59:53.513Z,27.21
2018-09-14T11:00:53.409Z,27.13
2018-09-14T11:01:53.759Z,27.07
2018-09-14T11:02:54.079Z,26.99
2018-09-14T11:03:54.442Z,27.12
2018-09-14T11:04:54.590Z,27.24
2018-09-14T11:05:54.959Z,27.29
2018-09-14T11:06:55.132Z,27.31
2018-09-14T11:07:55.250Z,27.31
2018-09-14T11:08:55.444Z,27.87
2018-09-14T11:09:55.611Z,28.32
2018-09-14T11:10:55.886Z,28.14
2018-09-14T11:11:56.062Z,28.80
2018-09-14T11:12:56.322Z,27.98
2018-09-14T11:13:56.435Z,27.46
2018-09-14T11:14:56.594Z,27.23
2018-09-14T11:15:56.824Z,27.14
2018-09-14T11:16:57.138Z,27.49
2018-09-14T11:17:57.350Z,27.24
2018-09-14T11:18:57.694Z,27.24
2018-09-14T11:19:57.964Z,27.18
2018-09-14T11:20:58.182Z,27.17
2018-09-14T11:21:58.422Z,28.29
2018-09-14T11:22:58.609Z,28.38
2018-09-14T11:23:58.828Z,29.06
2018-09-14T11:24:59.262Z,28.75
2018-09-14T11:25:59.336Z,29.47
2018-09-14T11:26:59.588Z,29.27
2018-09-14T11:27:59.770Z,28.45
2018-09-14T11:29:00.154Z,28.18
2018-09-14T11:30:00.416Z,28.60
2018-09-14T11:31:00.580Z,29.17
2018-09-14T11:32:00.670Z,29.97
2018-09-14T11:33:00.890Z,30.38
2018-09-14T11:34:01.117Z,30.56
2018-09-14T11:35:01.316Z,29.91
2018-09-14T11:36:01.673Z,29.78
2018-09-14T11:37:02.114Z,29.85
2018-09-14T11:38:02.583Z,29.87
2018-09-14T11:39:03.366Z,29.69
2018-09-14T11:40:03.878Z,29.66
2018-09-14T11:41:03.884Z,29.42
2018-09-14T11:42:03.889Z,29.31
2018-09-14T11:43:04.004Z,29.13
2018-09-14T11:44:04.017Z,28.91
2018-09-14T11:45:03.856Z,28.70
2018-09-14T11:46:04.484Z,28.57
2018-09-14T11:47:04.231Z,28.50
2018-09-14T11:48:04.547Z,28.45
2018-09-14T11:50:05.078Z,28.42
2018-09-14T11:51:05.392Z,28.28
2018-09-14T11:52:05.879Z,28.18
2018-09-14T11:53:06.422Z,28.07
2018-09-14T11:54:06.560Z,27.98
2018-09-14T11:55:06.335Z,27.85
2018-09-14T11:56:06.750Z,27.71
2018-09-14T11:57:07.061Z,27.59
2018-09-14T11:58:07.264Z,27.52
2018-09-14T11:59:07.238Z,27.47
2018-09-14T12:00:07.638Z,27.38
2018-09-14T12:01:07.789Z,27.31
2018-09-14T12:02:08.128Z,27.22
2018-09-14T12:03:08.249Z,27.16
2018-09-14T12:04:08.460Z,27.13
2018-09-14T12:05:08.843Z,27.03
2018-09-14T12:06:09.476Z,27.02
2018-09-14T12:07:09.550Z,27.02
2018-09-14T12:08:09.615Z,27.04
2018-09-14T12:09:09.685Z,27.21
2018-09-14T12:10:09.664Z,27.11
2018-09-14T12:11:09.844Z,27.01
2018-09-14T12:12:10.130Z,26.92
2018-09-14T12:13:10.285Z,26.91
2018-09-14T12:14:10.535Z,27.06
2018-09-14T12:15:10.764Z,27.00
2018-09-14T12:16:10.916Z,27.04
2018-09-14T12:17:11.114Z,27.52
2018-09-14T12:18:11.357Z,27.44
2018-09-14T12:19:11.543Z,27.38
2018-09-14T12:20:11.777Z,27.36
2018-09-14T12:21:11.970Z,27.30
2018-09-14T12:22:12.381Z,27.24
2018-09-14T12:23:12.477Z,27.18
2018-09-14T12:24:12.702Z,27.15
2018-09-14T12:25:12.765Z,27.08
2018-09-14T12:26:12.905Z,26.95
2018-09-14T12:27:13.112Z,26.97
2018-09-14T12:28:13.425Z,26.99
2018-09-14T12:29:13.547Z,26.97
2018-09-14T12:30:13.873Z,26.99
2018-09-14T12:32:14.082Z,26.98
2018-09-14T12:33:14.295Z,26.98
2018-09-14T12:34:14.454Z,26.98
2018-09-14T12:35:14.993Z,26.95
2018-09-14T12:36:14.713Z,26.93
2018-09-14T12:37:14.975Z,26.84
2018-09-14T12:38:15.140Z,26.64
2018-09-14T12:39:15.411Z,26.42
2018-09-14T12:40:15.805Z,26.19
2018-09-14T12:41:16.140Z,26.06
2018-09-14T12:42:16.287Z,25.97
2018-09-14T12:43:16.497Z,25.90
2018-09-14T12:44:16.720Z,25.87
2018-09-14T12:45:17.089Z,25.80
2018-09-14T12:46:17.260Z,25.77
2018-09-14T12:47:17.450Z,25.66
2018-09-14T12:48:17.693Z,25.60
2018-09-14T12:49:17.817Z,25.54
2018-09-14T12:50:18.479Z,25.46
2018-09-14T12:51:18.677Z,25.39
2018-09-14T12:52:20.221Z,25.33
2018-09-14T12:53:19.205Z,25.28
2018-09-14T12:54:19.619Z,25.24
2018-09-14T12:55:20.155Z,25.21
2018-09-14T12:56:20.170Z,25.19
2018-09-14T12:57:20.763Z,25.15
2018-09-14T12:58:20.669Z,25.10
2018-09-14T12:59:21.087Z,25.02
2018-09-14T13:00:21.619Z,24.92